<?xml version="1.0" encoding="UTF-8" standalone="no" ?>
<gpx xmlns="http://www.topografix.com/GPX/1/1" xmlns:xsi="http://www.w3.org/2001/XMLSchema-instance" xsi:schemaLocation="http://www.topografix.com/GPX/1/1 http://www.topografix.com/GPX/1/1/gpx.xsd" version="1.1" creator="VisuGPX - https://www.visugpx.com">
  <metadata>
    <name>9569201-Santeuil</name>
  </metadata>
  <trk>
    <name><![CDATA[9569201-Santeuil]]></name>
    <trkseg>
      <trkpt lat="49.1251" lon="1.9378">
        <ele>58</ele>
        <time>2019-04-29T22:22:39Z</time>
      </trkpt>
      <trkpt lat="49.12557" lon="1.93829">
        <ele>56</ele>
        <time>2019-04-29T22:23:39Z</time>
      </trkpt>
      <trkpt lat="49.12621" lon="1.93866">
        <ele>58</ele>
        <time>2019-04-29T22:24:39Z</time>
      </trkpt>
      <trkpt lat="49.12646" lon="1.93868">
        <ele>60</ele>
        <time>2019-04-29T22:25:39Z</time>
      </trkpt>
      <trkpt lat="49.12674" lon="1.93863">
        <ele>62</ele>
        <time>2019-04-29T22:26:39Z</time>
      </trkpt>
      <trkpt lat="49.12607" lon="1.93929">
        <ele>59</ele>
        <time>2019-04-29T22:27:39Z</time>
      </trkpt>
      <trkpt lat="49.12586" lon="1.93952">
        <ele>58</ele>
        <time>2019-04-29T22:28:39Z</time>
      </trkpt>
      <trkpt lat="49.12569" lon="1.93984">
        <ele>59</ele>
        <time>2019-04-29T22:29:39Z</time>
      </trkpt>
      <trkpt lat="49.12501" lon="1.94132">
        <ele>60</ele>
        <time>2019-04-29T22:30:39Z</time>
      </trkpt>
      <trkpt lat="49.12422" lon="1.9423">
        <ele>61</ele>
        <time>2019-04-29T22:31:39Z</time>
      </trkpt>
      <trkpt lat="49.12351" lon="1.94305">
        <ele>63</ele>
        <time>2019-04-29T22:32:39Z</time>
      </trkpt>
      <trkpt lat="49.12396" lon="1.94428">
        <ele>67</ele>
        <time>2019-04-29T22:33:39Z</time>
      </trkpt>
      <trkpt lat="49.12439" lon="1.94626">
        <ele>72</ele>
        <time>2019-04-29T22:34:39Z</time>
      </trkpt>
      <trkpt lat="49.12413" lon="1.94661">
        <ele>71</ele>
        <time>2019-04-29T22:35:39Z</time>
      </trkpt>
      <trkpt lat="49.12429" lon="1.94719">
        <ele>66</ele>
        <time>2019-04-29T22:36:39Z</time>
      </trkpt>
      <trkpt lat="49.12425" lon="1.94752">
        <ele>63</ele>
        <time>2019-04-29T22:37:39Z</time>
      </trkpt>
      <trkpt lat="49.12434" lon="1.94797">
        <ele>59</ele>
        <time>2019-04-29T22:38:39Z</time>
      </trkpt>
      <trkpt lat="49.12419" lon="1.94822">
        <ele>56</ele>
        <time>2019-04-29T22:39:39Z</time>
      </trkpt>
      <trkpt lat="49.1243" lon="1.94845">
        <ele>55</ele>
        <time>2019-04-29T22:40:39Z</time>
      </trkpt>
      <trkpt lat="49.12419" lon="1.94877">
        <ele>54</ele>
        <time>2019-04-29T22:41:39Z</time>
      </trkpt>
      <trkpt lat="49.12423" lon="1.94898">
        <ele>53</ele>
        <time>2019-04-29T22:42:39Z</time>
      </trkpt>
      <trkpt lat="49.12461" lon="1.94941">
        <ele>53</ele>
        <time>2019-04-29T22:43:39Z</time>
      </trkpt>
      <trkpt lat="49.12551" lon="1.95026">
        <ele>56</ele>
        <time>2019-04-29T22:44:39Z</time>
      </trkpt>
      <trkpt lat="49.12546" lon="1.95154">
        <ele>62</ele>
        <time>2019-04-29T22:45:39Z</time>
      </trkpt>
      <trkpt lat="49.12563" lon="1.95181">
        <ele>65</ele>
        <time>2019-04-29T22:46:39Z</time>
      </trkpt>
      <trkpt lat="49.12578" lon="1.95178">
        <ele>67</ele>
        <time>2019-04-29T22:47:39Z</time>
      </trkpt>
      <trkpt lat="49.12578" lon="1.95244">
        <ele>72</ele>
        <time>2019-04-29T22:48:39Z</time>
      </trkpt>
      <trkpt lat="49.12566" lon="1.95291">
        <ele>74</ele>
        <time>2019-04-29T22:49:39Z</time>
      </trkpt>
      <trkpt lat="49.12564" lon="1.95339">
        <ele>77</ele>
        <time>2019-04-29T22:50:39Z</time>
      </trkpt>
      <trkpt lat="49.12571" lon="1.9538">
        <ele>80</ele>
        <time>2019-04-29T22:51:39Z</time>
      </trkpt>
      <trkpt lat="49.12577" lon="1.95433">
        <ele>83</ele>
        <time>2019-04-29T22:52:39Z</time>
      </trkpt>
      <trkpt lat="49.12601" lon="1.95566">
        <ele>83</ele>
        <time>2019-04-29T22:53:39Z</time>
      </trkpt>
      <trkpt lat="49.12617" lon="1.95658">
        <ele>84</ele>
        <time>2019-04-29T22:54:39Z</time>
      </trkpt>
      <trkpt lat="49.1262" lon="1.95755">
        <ele>84</ele>
        <time>2019-04-29T22:55:39Z</time>
      </trkpt>
      <trkpt lat="49.12604" lon="1.95813">
        <ele>83</ele>
        <time>2019-04-29T22:56:39Z</time>
      </trkpt>
      <trkpt lat="49.12606" lon="1.95907">
        <ele>83</ele>
        <time>2019-04-29T22:57:39Z</time>
      </trkpt>
      <trkpt lat="49.12613" lon="1.95969">
        <ele>84</ele>
        <time>2019-04-29T22:58:39Z</time>
      </trkpt>
      <trkpt lat="49.12626" lon="1.96039">
        <ele>85</ele>
        <time>2019-04-29T22:59:39Z</time>
      </trkpt>
      <trkpt lat="49.12628" lon="1.96089">
        <ele>87</ele>
        <time>2019-04-29T23:00:39Z</time>
      </trkpt>
      <trkpt lat="49.12628" lon="1.9629">
        <ele>95</ele>
        <time>2019-04-29T23:01:39Z</time>
      </trkpt>
      <trkpt lat="49.1263" lon="1.9647">
        <ele>100</ele>
        <time>2019-04-29T23:02:39Z</time>
      </trkpt>
      <trkpt lat="49.12646" lon="1.96709">
        <ele>104</ele>
        <time>2019-04-29T23:03:39Z</time>
      </trkpt>
      <trkpt lat="49.12679" lon="1.96868">
        <ele>109</ele>
        <time>2019-04-29T23:04:39Z</time>
      </trkpt>
      <trkpt lat="49.12699" lon="1.97033">
        <ele>116</ele>
        <time>2019-04-29T23:05:39Z</time>
      </trkpt>
      <trkpt lat="49.12729" lon="1.96983">
        <ele>115</ele>
        <time>2019-04-29T23:06:39Z</time>
      </trkpt>
      <trkpt lat="49.12785" lon="1.96836">
        <ele>104</ele>
        <time>2019-04-29T23:07:39Z</time>
      </trkpt>
      <trkpt lat="49.12845" lon="1.96606">
        <ele>94</ele>
        <time>2019-04-29T23:08:39Z</time>
      </trkpt>
      <trkpt lat="49.12868" lon="1.96306">
        <ele>91</ele>
        <time>2019-04-29T23:09:39Z</time>
      </trkpt>
      <trkpt lat="49.13031" lon="1.96059">
        <ele>96</ele>
        <time>2019-04-29T23:10:39Z</time>
      </trkpt>
      <trkpt lat="49.1313" lon="1.95921">
        <ele>100</ele>
        <time>2019-04-29T23:11:39Z</time>
      </trkpt>
      <trkpt lat="49.13181" lon="1.95835">
        <ele>101</ele>
        <time>2019-04-29T23:12:39Z</time>
      </trkpt>
      <trkpt lat="49.13205" lon="1.95776">
        <ele>101</ele>
        <time>2019-04-29T23:13:39Z</time>
      </trkpt>
      <trkpt lat="49.13255" lon="1.95608">
        <ele>100</ele>
        <time>2019-04-29T23:14:39Z</time>
      </trkpt>
      <trkpt lat="49.13298" lon="1.95361">
        <ele>94</ele>
        <time>2019-04-29T23:15:39Z</time>
      </trkpt>
      <trkpt lat="49.13327" lon="1.95288">
        <ele>92</ele>
        <time>2019-04-29T23:16:39Z</time>
      </trkpt>
      <trkpt lat="49.13357" lon="1.95172">
        <ele>90</ele>
        <time>2019-04-29T23:17:39Z</time>
      </trkpt>
      <trkpt lat="49.13375" lon="1.95031">
        <ele>86</ele>
        <time>2019-04-29T23:18:39Z</time>
      </trkpt>
      <trkpt lat="49.13471" lon="1.94793">
        <ele>79</ele>
        <time>2019-04-29T23:19:39Z</time>
      </trkpt>
      <trkpt lat="49.13604" lon="1.94713">
        <ele>79</ele>
        <time>2019-04-29T23:20:39Z</time>
      </trkpt>
      <trkpt lat="49.13719" lon="1.94604">
        <ele>80</ele>
        <time>2019-04-29T23:21:39Z</time>
      </trkpt>
      <trkpt lat="49.13769" lon="1.94503">
        <ele>78</ele>
        <time>2019-04-29T23:22:39Z</time>
      </trkpt>
      <trkpt lat="49.13774" lon="1.94411">
        <ele>71</ele>
        <time>2019-04-29T23:23:39Z</time>
      </trkpt>
      <trkpt lat="49.1377" lon="1.94371">
        <ele>68</ele>
        <time>2019-04-29T23:24:39Z</time>
      </trkpt>
      <trkpt lat="49.13757" lon="1.94333">
        <ele>64</ele>
        <time>2019-04-29T23:25:39Z</time>
      </trkpt>
      <trkpt lat="49.13726" lon="1.94343">
        <ele>63</ele>
        <time>2019-04-29T23:26:39Z</time>
      </trkpt>
      <trkpt lat="49.13686" lon="1.94352">
        <ele>62</ele>
        <time>2019-04-29T23:27:39Z</time>
      </trkpt>
      <trkpt lat="49.1368" lon="1.94312">
        <ele>60</ele>
        <time>2019-04-29T23:28:39Z</time>
      </trkpt>
      <trkpt lat="49.1365" lon="1.94273">
        <ele>59</ele>
        <time>2019-04-29T23:29:39Z</time>
      </trkpt>
      <trkpt lat="49.1368" lon="1.94296">
        <ele>60</ele>
        <time>2019-04-29T23:30:39Z</time>
      </trkpt>
      <trkpt lat="49.13688" lon="1.9433">
        <ele>61</ele>
        <time>2019-04-29T23:31:39Z</time>
      </trkpt>
      <trkpt lat="49.13746" lon="1.94257">
        <ele>60</ele>
        <time>2019-04-29T23:32:39Z</time>
      </trkpt>
      <trkpt lat="49.13778" lon="1.94203">
        <ele>61</ele>
        <time>2019-04-29T23:33:39Z</time>
      </trkpt>
      <trkpt lat="49.13811" lon="1.94245">
        <ele>64</ele>
        <time>2019-04-29T23:34:39Z</time>
      </trkpt>
      <trkpt lat="49.13827" lon="1.94219">
        <ele>64</ele>
        <time>2019-04-29T23:35:39Z</time>
      </trkpt>
      <trkpt lat="49.13867" lon="1.94126">
        <ele>64</ele>
        <time>2019-04-29T23:36:39Z</time>
      </trkpt>
      <trkpt lat="49.13901" lon="1.94062">
        <ele>64</ele>
        <time>2019-04-29T23:37:39Z</time>
      </trkpt>
      <trkpt lat="49.13948" lon="1.93995">
        <ele>65</ele>
        <time>2019-04-29T23:38:39Z</time>
      </trkpt>
      <trkpt lat="49.14023" lon="1.93977">
        <ele>68</ele>
        <time>2019-04-29T23:39:39Z</time>
      </trkpt>
      <trkpt lat="49.14216" lon="1.93981">
        <ele>71</ele>
        <time>2019-04-29T23:40:39Z</time>
      </trkpt>
      <trkpt lat="49.14329" lon="1.94007">
        <ele>75</ele>
        <time>2019-04-29T23:41:39Z</time>
      </trkpt>
      <trkpt lat="49.14452" lon="1.9394">
        <ele>67</ele>
        <time>2019-04-29T23:42:39Z</time>
      </trkpt>
      <trkpt lat="49.14496" lon="1.93944">
        <ele>66</ele>
        <time>2019-04-29T23:43:39Z</time>
      </trkpt>
      <trkpt lat="49.14549" lon="1.93992">
        <ele>66</ele>
        <time>2019-04-29T23:44:39Z</time>
      </trkpt>
      <trkpt lat="49.1457" lon="1.94004">
        <ele>65</ele>
        <time>2019-04-29T23:45:39Z</time>
      </trkpt>
      <trkpt lat="49.14602" lon="1.93995">
        <ele>66</ele>
        <time>2019-04-29T23:46:39Z</time>
      </trkpt>
      <trkpt lat="49.14633" lon="1.9396">
        <ele>65</ele>
        <time>2019-04-29T23:47:39Z</time>
      </trkpt>
      <trkpt lat="49.14618" lon="1.93909">
        <ele>61</ele>
        <time>2019-04-29T23:48:39Z</time>
      </trkpt>
      <trkpt lat="49.14617" lon="1.93835">
        <ele>58</ele>
        <time>2019-04-29T23:49:39Z</time>
      </trkpt>
      <trkpt lat="49.14627" lon="1.93777">
        <ele>57</ele>
        <time>2019-04-29T23:50:39Z</time>
      </trkpt>
      <trkpt lat="49.14651" lon="1.93719">
        <ele>57</ele>
        <time>2019-04-29T23:51:39Z</time>
      </trkpt>
      <trkpt lat="49.14664" lon="1.93673">
        <ele>57</ele>
        <time>2019-04-29T23:52:39Z</time>
      </trkpt>
      <trkpt lat="49.14659" lon="1.93613">
        <ele>64</ele>
        <time>2019-04-29T23:53:39Z</time>
      </trkpt>
      <trkpt lat="49.14653" lon="1.93599">
        <ele>65</ele>
        <time>2019-04-29T23:54:39Z</time>
      </trkpt>
      <trkpt lat="49.14624" lon="1.93588">
        <ele>65</ele>
        <time>2019-04-29T23:55:39Z</time>
      </trkpt>
      <trkpt lat="49.14545" lon="1.93531">
        <ele>65</ele>
        <time>2019-04-29T23:56:39Z</time>
      </trkpt>
      <trkpt lat="49.14523" lon="1.9348">
        <ele>65</ele>
        <time>2019-04-29T23:57:39Z</time>
      </trkpt>
      <trkpt lat="49.14527" lon="1.93432">
        <ele>66</ele>
        <time>2019-04-29T23:58:39Z</time>
      </trkpt>
      <trkpt lat="49.14547" lon="1.93343">
        <ele>68</ele>
        <time>2019-04-29T23:59:39Z</time>
      </trkpt>
      <trkpt lat="49.14637" lon="1.93082">
        <ele>74</ele>
        <time>2019-04-30T00:00:39Z</time>
      </trkpt>
      <trkpt lat="49.14645" lon="1.92936">
        <ele>74</ele>
        <time>2019-04-30T00:01:39Z</time>
      </trkpt>
      <trkpt lat="49.14629" lon="1.92784">
        <ele>76</ele>
        <time>2019-04-30T00:02:39Z</time>
      </trkpt>
      <trkpt lat="49.14637" lon="1.92645">
        <ele>76</ele>
        <time>2019-04-30T00:03:39Z</time>
      </trkpt>
      <trkpt lat="49.14649" lon="1.92515">
        <ele>81</ele>
        <time>2019-04-30T00:04:39Z</time>
      </trkpt>
      <trkpt lat="49.14678" lon="1.92384">
        <ele>83</ele>
        <time>2019-04-30T00:05:39Z</time>
      </trkpt>
      <trkpt lat="49.1471" lon="1.92183">
        <ele>88</ele>
        <time>2019-04-30T00:06:39Z</time>
      </trkpt>
      <trkpt lat="49.14734" lon="1.9208">
        <ele>87</ele>
        <time>2019-04-30T00:07:39Z</time>
      </trkpt>
      <trkpt lat="49.14779" lon="1.92051">
        <ele>88</ele>
        <time>2019-04-30T00:08:39Z</time>
      </trkpt>
      <trkpt lat="49.14773" lon="1.92001">
        <ele>87</ele>
        <time>2019-04-30T00:09:39Z</time>
      </trkpt>
      <trkpt lat="49.14759" lon="1.91923">
        <ele>89</ele>
        <time>2019-04-30T00:10:39Z</time>
      </trkpt>
      <trkpt lat="49.14744" lon="1.9188">
        <ele>89</ele>
        <time>2019-04-30T00:11:39Z</time>
      </trkpt>
      <trkpt lat="49.14682" lon="1.91764">
        <ele>92</ele>
        <time>2019-04-30T00:12:39Z</time>
      </trkpt>
      <trkpt lat="49.14674" lon="1.91751">
        <ele>92</ele>
        <time>2019-04-30T00:13:39Z</time>
      </trkpt>
      <trkpt lat="49.14668" lon="1.91753">
        <ele>92</ele>
        <time>2019-04-30T00:14:39Z</time>
      </trkpt>
      <trkpt lat="49.14554" lon="1.91534">
        <ele>94</ele>
        <time>2019-04-30T00:15:39Z</time>
      </trkpt>
      <trkpt lat="49.14398" lon="1.91287">
        <ele>93</ele>
        <time>2019-04-30T00:16:39Z</time>
      </trkpt>
      <trkpt lat="49.14357" lon="1.91223">
        <ele>93</ele>
        <time>2019-04-30T00:17:39Z</time>
      </trkpt>
      <trkpt lat="49.14287" lon="1.91173">
        <ele>90</ele>
        <time>2019-04-30T00:18:39Z</time>
      </trkpt>
      <trkpt lat="49.14248" lon="1.91239">
        <ele>88</ele>
        <time>2019-04-30T00:19:39Z</time>
      </trkpt>
      <trkpt lat="49.1424" lon="1.91292">
        <ele>88</ele>
        <time>2019-04-30T00:20:39Z</time>
      </trkpt>
      <trkpt lat="49.14237" lon="1.91325">
        <ele>87</ele>
        <time>2019-04-30T00:21:39Z</time>
      </trkpt>
      <trkpt lat="49.14176" lon="1.91386">
        <ele>81</ele>
        <time>2019-04-30T00:22:39Z</time>
      </trkpt>
      <trkpt lat="49.14171" lon="1.91465">
        <ele>80</ele>
        <time>2019-04-30T00:23:39Z</time>
      </trkpt>
      <trkpt lat="49.14154" lon="1.91563">
        <ele>81</ele>
        <time>2019-04-30T00:24:39Z</time>
      </trkpt>
      <trkpt lat="49.14123" lon="1.91657">
        <ele>82</ele>
        <time>2019-04-30T00:25:39Z</time>
      </trkpt>
      <trkpt lat="49.14092" lon="1.91719">
        <ele>82</ele>
        <time>2019-04-30T00:26:39Z</time>
      </trkpt>
      <trkpt lat="49.14062" lon="1.91752">
        <ele>81</ele>
        <time>2019-04-30T00:27:39Z</time>
      </trkpt>
      <trkpt lat="49.14034" lon="1.91821">
        <ele>83</ele>
        <time>2019-04-30T00:28:39Z</time>
      </trkpt>
      <trkpt lat="49.13975" lon="1.91891">
        <ele>80</ele>
        <time>2019-04-30T00:29:39Z</time>
      </trkpt>
      <trkpt lat="49.13898" lon="1.9195">
        <ele>76</ele>
        <time>2019-04-30T00:30:39Z</time>
      </trkpt>
      <trkpt lat="49.13831" lon="1.91997">
        <ele>79</ele>
        <time>2019-04-30T00:31:39Z</time>
      </trkpt>
      <trkpt lat="49.13752" lon="1.92047">
        <ele>81</ele>
        <time>2019-04-30T00:32:39Z</time>
      </trkpt>
      <trkpt lat="49.13678" lon="1.92171">
        <ele>80</ele>
        <time>2019-04-30T00:33:39Z</time>
      </trkpt>
      <trkpt lat="49.13633" lon="1.92287">
        <ele>79</ele>
        <time>2019-04-30T00:34:39Z</time>
      </trkpt>
      <trkpt lat="49.13559" lon="1.92519">
        <ele>79</ele>
        <time>2019-04-30T00:35:39Z</time>
      </trkpt>
      <trkpt lat="49.13507" lon="1.92716">
        <ele>79</ele>
        <time>2019-04-30T00:36:39Z</time>
      </trkpt>
      <trkpt lat="49.13481" lon="1.92829">
        <ele>76</ele>
        <time>2019-04-30T00:37:39Z</time>
      </trkpt>
      <trkpt lat="49.13435" lon="1.92948">
        <ele>71</ele>
        <time>2019-04-30T00:38:39Z</time>
      </trkpt>
      <trkpt lat="49.13432" lon="1.92981">
        <ele>74</ele>
        <time>2019-04-30T00:39:39Z</time>
      </trkpt>
      <trkpt lat="49.1338" lon="1.93069">
        <ele>77</ele>
        <time>2019-04-30T00:40:39Z</time>
      </trkpt>
      <trkpt lat="49.13279" lon="1.93151">
        <ele>80</ele>
        <time>2019-04-30T00:41:39Z</time>
      </trkpt>
      <trkpt lat="49.13244" lon="1.93193">
        <ele>81</ele>
        <time>2019-04-30T00:42:39Z</time>
      </trkpt>
      <trkpt lat="49.13236" lon="1.93241">
        <ele>84</ele>
        <time>2019-04-30T00:43:39Z</time>
      </trkpt>
      <trkpt lat="49.13245" lon="1.93303">
        <ele>87</ele>
        <time>2019-04-30T00:44:39Z</time>
      </trkpt>
      <trkpt lat="49.13198" lon="1.9341">
        <ele>84</ele>
        <time>2019-04-30T00:45:39Z</time>
      </trkpt>
      <trkpt lat="49.13182" lon="1.93445">
        <ele>84</ele>
        <time>2019-04-30T00:46:39Z</time>
      </trkpt>
      <trkpt lat="49.13096" lon="1.93659">
        <ele>81</ele>
        <time>2019-04-30T00:47:39Z</time>
      </trkpt>
      <trkpt lat="49.13044" lon="1.93724">
        <ele>82</ele>
        <time>2019-04-30T00:48:39Z</time>
      </trkpt>
      <trkpt lat="49.13032" lon="1.9374">
        <ele>82</ele>
        <time>2019-04-30T00:49:39Z</time>
      </trkpt>
      <trkpt lat="49.12944" lon="1.93756">
        <ele>78</ele>
        <time>2019-04-30T00:50:39Z</time>
      </trkpt>
      <trkpt lat="49.12827" lon="1.93771">
        <ele>68</ele>
        <time>2019-04-30T00:51:39Z</time>
      </trkpt>
      <trkpt lat="49.12759" lon="1.93767">
        <ele>65</ele>
        <time>2019-04-30T00:52:39Z</time>
      </trkpt>
      <trkpt lat="49.12733" lon="1.93782">
        <ele>64</ele>
        <time>2019-04-30T00:53:39Z</time>
      </trkpt>
      <trkpt lat="49.12676" lon="1.93858">
        <ele>62</ele>
        <time>2019-04-30T00:54:39Z</time>
      </trkpt>
      <trkpt lat="49.12646" lon="1.93864">
        <ele>60</ele>
        <time>2019-04-30T00:55:39Z</time>
      </trkpt>
      <trkpt lat="49.12621" lon="1.93861">
        <ele>58</ele>
        <time>2019-04-30T00:56:39Z</time>
      </trkpt>
      <trkpt lat="49.12559" lon="1.93827">
        <ele>56</ele>
        <time>2019-04-30T00:57:39Z</time>
      </trkpt>
      <trkpt lat="49.12512" lon="1.93776">
        <ele>58</ele>
        <time>2019-04-30T00:58:39Z</time>
      </trkpt>
    </trkseg>
  </trk>
</gpx>